GLD1794 LPPI-LPLA
Flight info
| Callsign | GLD1794 |
|---|---|
| Flight time | 0h 21m |
| Altitude | 15000 |
| Route | GORZI DCT LIZHA DCT CUDLY |
| Aircraft | A320/M-SDE3FGHIRWY/LB1 |
Departure
| Time | 2026-05-07 17:48 |
|---|---|
| Airport | Pico Airport (LPPI) |
Arrival
| Time | 2026-05-07 18:10 |
|---|---|
| Airport | Lajes Airport (LPLA) |
| Time | Latitude | Longitude | Altitude | Speed | Heading |
|---|---|---|---|---|---|
| 2026-05-07 17:34 | 38.55266 | -28.44258 | 136 ft | 0 kts | 306° |
| 2026-05-07 17:42 | 38.55268 | -28.44261 | 140 ft | 1 kts | 310° |
| 2026-05-07 17:43 | 38.55280 | -28.44268 | 135 ft | 3 kts | 337° |
| 2026-05-07 17:43 | 38.55307 | -28.44278 | 138 ft | 5 kts | 345° |
| 2026-05-07 17:43 | 38.55343 | -28.44290 | 137 ft | 7 kts | 339° |
| 2026-05-07 17:43 | 38.55387 | -28.44338 | 135 ft | 10 kts | 333° |
| 2026-05-07 17:44 | 38.55420 | -28.44288 | 134 ft | 8 kts | 81° |
| 2026-05-07 17:44 | 38.55426 | -28.44229 | 135 ft | 6 kts | 82° |
| 2026-05-07 17:44 | 38.55433 | -28.44167 | 137 ft | 8 kts | 83° |
| 2026-05-07 17:44 | 38.55440 | -28.44091 | 137 ft | 9 kts | 83° |
| 2026-05-07 17:45 | 38.55448 | -28.44004 | 136 ft | 11 kts | 82° |
| 2026-05-07 17:45 | 38.55459 | -28.43907 | 139 ft | 11 kts | 81° |
| 2026-05-07 17:45 | 38.55470 | -28.43805 | 140 ft | 12 kts | 83° |
| 2026-05-07 17:45 | 38.55480 | -28.43694 | 140 ft | 14 kts | 83° |
| 2026-05-07 17:46 | 38.55495 | -28.43561 | 138 ft | 16 kts | 82° |
| 2026-05-07 17:46 | 38.55510 | -28.43412 | 136 ft | 16 kts | 82° |
| 2026-05-07 17:46 | 38.55524 | -28.43274 | 135 ft | 15 kts | 84° |
| 2026-05-07 17:46 | 38.55550 | -28.43164 | 136 ft | 8 kts | 114° |
| 2026-05-07 17:47 | 38.55534 | -28.43173 | 139 ft | 4 kts | 244° |
| 2026-05-07 17:47 | 38.55531 | -28.43194 | 138 ft | 0 kts | 263° |
| 2026-05-07 17:47 | 38.55527 | -28.43230 | 137 ft | 29 kts | 263° |
| 2026-05-07 17:47 | 38.55462 | -28.43874 | 140 ft | 114 kts | 262° |
| 2026-05-07 17:48 | 38.55338 | -28.45112 | 410 ft | 151 kts | 271° |
| 2026-05-07 17:48 | 38.55259 | -28.46451 | 1273 ft | 148 kts | 280° |
| 2026-05-07 17:48 | 38.55716 | -28.47555 | 2137 ft | 140 kts | 320° |
| 2026-05-07 17:48 | 38.56577 | -28.48152 | 2679 ft | 150 kts | 346° |
| 2026-05-07 17:49 | 38.57697 | -28.48072 | 3003 ft | 179 kts | 13° |
| 2026-05-07 17:49 | 38.58964 | -28.47513 | 3353 ft | 205 kts | 13° |
| 2026-05-07 17:49 | 38.60402 | -28.46905 | 3821 ft | 229 kts | 14° |
| 2026-05-07 17:49 | 38.61934 | -28.46258 | 4587 ft | 238 kts | 14° |
| 2026-05-07 17:50 | 38.63523 | -28.45580 | 5470 ft | 242 kts | 14° |
| 2026-05-07 17:50 | 38.65137 | -28.44891 | 6385 ft | 246 kts | 13° |
| 2026-05-07 17:50 | 38.66776 | -28.44197 | 7199 ft | 250 kts | 13° |
| 2026-05-07 17:50 | 38.68441 | -28.43496 | 8058 ft | 254 kts | 13° |
| 2026-05-07 17:51 | 38.70053 | -28.42488 | 8878 ft | 266 kts | 32° |
| 2026-05-07 17:51 | 38.71305 | -28.40666 | 9709 ft | 283 kts | 54° |
| 2026-05-07 17:51 | 38.71898 | -28.38198 | 10448 ft | 302 kts | 80° |
| 2026-05-07 17:51 | 38.71699 | -28.35427 | 10928 ft | 326 kts | 94° |
| 2026-05-07 17:52 | 38.71289 | -28.32463 | 11150 ft | 350 kts | 96° |
| 2026-05-07 17:52 | 38.70821 | -28.29313 | 11480 ft | 367 kts | 96° |
| 2026-05-07 17:52 | 38.70327 | -28.26071 | 12117 ft | 374 kts | 96° |
| 2026-05-07 17:52 | 38.69828 | -28.22780 | 12817 ft | 379 kts | 96° |
| 2026-05-07 17:53 | 38.69328 | -28.19443 | 13499 ft | 384 kts | 96° |
| 2026-05-07 17:53 | 38.68830 | -28.16063 | 14118 ft | 389 kts | 96° |
| 2026-05-07 17:53 | 38.68333 | -28.12644 | 14701 ft | 394 kts | 95° |
| 2026-05-07 17:53 | 38.67831 | -28.09182 | 14920 ft | 396 kts | 95° |
| 2026-05-07 17:54 | 38.67322 | -28.05663 | 14984 ft | 410 kts | 96° |
| 2026-05-07 17:54 | 38.66797 | -28.02032 | 14960 ft | 417 kts | 96° |
| 2026-05-07 17:54 | 38.66263 | -27.98362 | 14978 ft | 422 kts | 96° |
| 2026-05-07 17:54 | 38.65720 | -27.94675 | 14964 ft | 423 kts | 96° |
| 2026-05-07 17:55 | 38.65169 | -27.90974 | 14972 ft | 423 kts | 96° |
| 2026-05-07 17:55 | 38.64619 | -27.87279 | 14967 ft | 423 kts | 96° |
| 2026-05-07 17:55 | 38.64072 | -27.83586 | 14967 ft | 423 kts | 96° |
| 2026-05-07 17:55 | 38.63524 | -27.79885 | 14968 ft | 423 kts | 96° |
| 2026-05-07 17:56 | 38.62986 | -27.76241 | 14980 ft | 423 kts | 96° |
| 2026-05-07 17:56 | 38.62439 | -27.72557 | 14963 ft | 420 kts | 97° |
| 2026-05-07 17:56 | 38.61893 | -27.68888 | 14957 ft | 420 kts | 97° |
| 2026-05-07 17:56 | 38.61347 | -27.65222 | 14959 ft | 420 kts | 97° |
| 2026-05-07 17:57 | 38.60799 | -27.61555 | 14964 ft | 420 kts | 97° |
| 2026-05-07 17:57 | 38.60428 | -27.59080 | 14959 ft | 420 kts | 97° |
| 2026-05-07 17:57 | 38.59708 | -27.54303 | 14667 ft | 406 kts | 97° |
| 2026-05-07 17:57 | 38.59178 | -27.50807 | 14414 ft | 396 kts | 97° |
| 2026-05-07 17:58 | 38.58653 | -27.47364 | 14179 ft | 393 kts | 97° |
| 2026-05-07 17:58 | 38.58133 | -27.43954 | 13662 ft | 391 kts | 97° |
| 2026-05-07 17:58 | 38.57617 | -27.40552 | 13076 ft | 389 kts | 97° |
| 2026-05-07 17:58 | 38.57102 | -27.37161 | 12528 ft | 386 kts | 97° |
| 2026-05-07 17:59 | 38.56592 | -27.33801 | 11958 ft | 384 kts | 97° |
| 2026-05-07 17:59 | 38.56085 | -27.30460 | 11401 ft | 381 kts | 97° |
| 2026-05-07 17:59 | 38.55579 | -27.27146 | 10833 ft | 379 kts | 97° |
| 2026-05-07 17:59 | 38.55075 | -27.23855 | 10439 ft | 370 kts | 97° |
| 2026-05-07 18:00 | 38.54592 | -27.20749 | 10301 ft | 342 kts | 96° |
| 2026-05-07 18:00 | 38.54141 | -27.17865 | 10155 ft | 319 kts | 96° |
| 2026-05-07 18:00 | 38.53722 | -27.15200 | 10132 ft | 296 kts | 96° |
| 2026-05-07 18:00 | 38.53324 | -27.12647 | 10029 ft | 291 kts | 96° |
| 2026-05-07 18:01 | 38.52937 | -27.10122 | 9791 ft | 290 kts | 95° |
| 2026-05-07 18:01 | 38.52562 | -27.07651 | 9359 ft | 285 kts | 95° |
| 2026-05-07 18:01 | 38.52390 | -27.05164 | 9032 ft | 279 kts | 82° |
| 2026-05-07 18:01 | 38.52422 | -27.02697 | 8536 ft | 276 kts | 83° |
| 2026-05-07 18:02 | 38.52422 | -26.97840 | 7500 ft | 271 kts | 84° |
| 2026-05-07 18:02 | 38.52414 | -26.95443 | 7001 ft | 270 kts | 84° |
| 2026-05-07 18:02 | 38.52409 | -26.93060 | 6496 ft | 265 kts | 82° |
| 2026-05-07 18:03 | 38.52758 | -26.90858 | 5940 ft | 245 kts | 54° |
| 2026-05-07 18:03 | 38.53843 | -26.89342 | 5515 ft | 222 kts | 23° |
| 2026-05-07 18:03 | 38.55242 | -26.88748 | 5364 ft | 209 kts | 359° |
| 2026-05-07 18:03 | 38.56651 | -26.88995 | 5177 ft | 204 kts | 336° |
| 2026-05-07 18:04 | 38.57830 | -26.89959 | 4936 ft | 200 kts | 322° |
| 2026-05-07 18:04 | 38.58880 | -26.91054 | 4661 ft | 191 kts | 322° |
| 2026-05-07 18:04 | 38.59904 | -26.92119 | 4382 ft | 188 kts | 322° |
| 2026-05-07 18:04 | 38.60914 | -26.93168 | 4110 ft | 185 kts | 322° |
| 2026-05-07 18:05 | 38.61908 | -26.94202 | 3847 ft | 183 kts | 323° |
| 2026-05-07 18:05 | 38.62887 | -26.95220 | 3583 ft | 180 kts | 323° |
| 2026-05-07 18:05 | 38.63855 | -26.96226 | 3320 ft | 178 kts | 323° |
| 2026-05-07 18:05 | 38.64811 | -26.97220 | 3066 ft | 176 kts | 323° |
| 2026-05-07 18:06 | 38.65745 | -26.98193 | 2810 ft | 170 kts | 323° |
| 2026-05-07 18:06 | 38.66635 | -26.99119 | 2607 ft | 159 kts | 323° |
| 2026-05-07 18:06 | 38.67452 | -26.99971 | 2333 ft | 144 kts | 323° |
| 2026-05-07 18:06 | 38.68194 | -27.00744 | 2119 ft | 135 kts | 323° |
| 2026-05-07 18:07 | 38.68911 | -27.01491 | 1930 ft | 131 kts | 322° |
| 2026-05-07 18:07 | 38.69618 | -27.02227 | 1736 ft | 130 kts | 322° |
| 2026-05-07 18:07 | 38.70317 | -27.02955 | 1529 ft | 129 kts | 322° |
| 2026-05-07 18:07 | 38.71007 | -27.03679 | 1363 ft | 128 kts | 322° |
| 2026-05-07 18:08 | 38.71700 | -27.04409 | 1216 ft | 129 kts | 322° |
| 2026-05-07 18:08 | 38.72388 | -27.05140 | 1028 ft | 128 kts | 322° |
| 2026-05-07 18:08 | 38.73085 | -27.05867 | 804 ft | 130 kts | 322° |
| 2026-05-07 18:08 | 38.73789 | -27.06577 | 613 ft | 128 kts | 322° |
| 2026-05-07 18:09 | 38.74482 | -27.07298 | 416 ft | 127 kts | 320° |
| 2026-05-07 18:09 | 38.75165 | -27.08021 | 239 ft | 127 kts | 321° |
| 2026-05-07 18:09 | 38.75810 | -27.08689 | 184 ft | 106 kts | 320° |
| 2026-05-07 18:09 | 38.76264 | -27.09163 | 179 ft | 60 kts | 321° |
| 2026-05-07 18:10 | 38.76468 | -27.09376 | 179 ft | 25 kts | 321° |
| 2026-05-07 18:10 | 38.76574 | -27.09434 | 179 ft | 14 kts | 40° |
| 2026-05-07 18:10 | 38.76613 | -27.09378 | 178 ft | 12 kts | 52° |
| 2026-05-07 18:10 | 38.76621 | -27.09293 | 178 ft | 11 kts | 131° |
| 2026-05-07 18:11 | 38.76557 | -27.09225 | 178 ft | 13 kts | 142° |
| 2026-05-07 18:11 | 38.76482 | -27.09145 | 178 ft | 15 kts | 139° |
| 2026-05-07 18:11 | 38.76403 | -27.09070 | 177 ft | 14 kts | 155° |
| 2026-05-07 18:11 | 38.76308 | -27.09065 | 178 ft | 13 kts | 187° |
| 2026-05-07 18:12 | 38.76228 | -27.09073 | 179 ft | 11 kts | 182° |
| 2026-05-07 18:12 | 38.76157 | -27.09050 | 180 ft | 11 kts | 146° |
| 2026-05-07 18:12 | 38.76089 | -27.08980 | 180 ft | 14 kts | 140° |
| 2026-05-07 18:12 | 38.76012 | -27.08901 | 181 ft | 15 kts | 149° |
| 2026-05-07 18:13 | 38.75915 | -27.08895 | 180 ft | 13 kts | 185° |
| 2026-05-07 18:13 | 38.75825 | -27.08905 | 179 ft | 13 kts | 185° |
| 2026-05-07 18:13 | 38.75750 | -27.08912 | 179 ft | 7 kts | 182° |
| 2026-05-07 18:13 | 38.75710 | -27.08908 | 178 ft | 6 kts | 155° |
| 2026-05-07 18:14 | 38.75683 | -27.08879 | 178 ft | 0 kts | 140° |